Columbia Falls, Montana
Current Conditions -  °F | °C
As of 5:55 AM on Thursday 30 Oct 2014 (Local Time) from KGPI Reporting Station
Moderate Fog Moderate Fog  
Wind Chill: 41°   Ceiling: 200
Heat Index: 41°   Visibility: 0.25mi
Dew Point: 40°   Wind: 3mph
Humidity: 96%   Direction: 50°NE
Pressure: 30.25"   Gusts: NA
Location:  48.37°N, 114.18°W
Report Text: KGPI 301155Z AUTO 05003KT 1/4SM FG VV002 05/04 A3025 RMK AO2 SLP257 70003 T00500044 10050 20033 55000
Loading
Personal Weather Stations






























Interactive Weather Map
Tropical Storm Tracking
New forecast layout! Learn more

10-Day Weather Forecast

Advertisements
Track Severe Weather on mobile